Time;durP1;ratioP1;P1;durP2;ratioP2;P2;SDS_P1;SDS_P2;PMS_P1;PMS_P2;Temp;Humidity;BMP_temperature;BMP_pressure;BME280_temperature;BME280_humidity;BME280_pressure;Samples;Min_cycle;Max_cycle;Signal;HPM_P1;HPM_P2
2023/10/14 00:01:10;;;;;;;6.67;5.43;;;20.30;1.00;;;;;;5109624;27;20538;-71
2023/10/14 00:03:41;;;;;;;10.33;6.20;;;20.00;1.00;;;;;;5108195;27;20848;-69
2023/10/14 00:06:11;;;;;;;8.00;5.47;;;19.80;1.00;;;;;;5100695;27;20482;-70
2023/10/14 00:08:47;;;;;;;7.43;5.90;;;19.60;1.00;;;;;;5109150;27;20457;-70
2023/10/14 00:11:15;;;;;;;8.37;5.37;;;19.40;1.00;;;;;;5107223;27;20558;-70
2023/10/14 00:13:48;;;;;;;7.13;5.80;;;19.30;1.00;;;;;;5108134;27;20559;-72
2023/10/14 00:16:25;;;;;;;6.60;5.67;;;19.20;1.00;;;;;;5110392;27;20465;-69
2023/10/14 00:18:52;;;;;;;6.00;5.27;;;19.10;1.00;;;;;;5109290;27;20452;-70
2023/10/14 00:21:19;;;;;;;7.77;5.60;;;18.90;1.00;;;;;;5105836;27;20461;-71
2023/10/14 00:23:46;;;;;;;8.10;6.20;;;18.70;1.00;;;;;;5109865;27;20486;-70
2023/10/14 00:26:16;;;;;;;8.30;5.93;;;18.70;1.00;;;;;;5099426;27;20905;-71
2023/10/14 00:28:45;;;;;;;7.90;6.10;;;18.50;1.00;;;;;;5104861;27;20462;-69
2023/10/14 00:31:13;;;;;;;8.17;6.30;;;18.30;1.00;;;;;;5106334;27;20449;-69
2023/10/14 00:33:40;;;;;;;6.50;5.80;;;18.00;1.00;;;;;;5104660;27;21079;-69
2023/10/14 00:36:10;;;;;;;9.50;5.70;;;17.80;1.00;;;;;;5108702;27;21059;-70
2023/10/14 00:38:39;;;;;;;7.83;5.60;;;17.60;1.00;;;;;;5107282;27;20555;-71
2023/10/14 00:41:08;;;;;;;11.20;6.17;;;17.60;1.00;;;;;;5108518;27;20454;-71
2023/10/14 00:43:36;;;;;;;9.80;6.23;;;17.50;1.00;;;;;;5106584;27;20465;-70
2023/10/14 00:46:11;;;;;;;7.73;6.37;;;17.40;1.00;;;;;;5105153;27;20454;-75
2023/10/14 00:48:40;;;;;;;8.33;5.30;;;17.30;1.00;;;;;;5107767;27;21281;-75
2023/10/14 00:51:10;;;;;;;10.40;6.63;;;17.20;1.00;;;;;;5110715;27;20520;-76
2023/10/14 00:53:51;;;;;;;8.83;6.07;;;17.20;1.00;;;;;;5110271;27;20464;-76
2023/10/14 00:56:19;;;;;;;9.17;6.10;;;17.20;1.00;;;;;;5107233;27;20451;-74
2023/10/14 00:58:50;;;;;;;7.53;5.90;;;17.30;1.00;;;;;;5110839;27;20461;-75
2023/10/14 01:01:19;;;;;;;8.63;5.40;;;17.20;1.00;;;;;;5108850;27;20508;-75
2023/10/14 01:03:49;;;;;;;15.67;6.40;;;17.30;1.00;;;;;;5109012;27;21017;-74
2023/10/14 01:06:22;;;;;;;10.17;5.77;;;17.30;1.00;;;;;;5106929;27;20500;-75
2023/10/14 01:08:52;;;;;;;10.30;5.90;;;17.30;1.00;;;;;;5108705;27;22607;-75
2023/10/14 01:11:23;;;;;;;10.13;6.77;;;17.30;1.00;;;;;;5108332;27;20461;-75
2023/10/14 01:13:51;;;;;;;8.13;6.17;;;17.30;1.00;;;;;;5103731;27;20471;-77
2023/10/14 01:16:24;;;;;;;8.93;5.50;;;17.40;1.00;;;;;;5107314;27;20452;-75
2023/10/14 01:18:51;;;;;;;10.87;6.17;;;17.40;1.00;;;;;;5109168;27;20450;-76
2023/10/14 01:21:19;;;;;;;7.50;5.30;;;17.40;1.00;;;;;;5105316;27;20907;-77
2023/10/14 01:23:58;;;;;;;10.30;5.47;;;17.40;1.00;;;;;;5108874;27;20470;-77
2023/10/14 01:26:25;;;;;;;7.50;5.77;;;17.50;1.00;;;;;;5104781;27;20492;-76
2023/10/14 01:28:59;;;;;;;11.27;6.30;;;17.50;1.00;;;;;;5109375;27;20478;-76
2023/10/14 01:31:57;;;;;;;6.43;5.10;;;17.50;1.00;;;;;;5110736;27;20631;-77
2023/10/14 01:34:29;;;;;;;6.60;5.23;;;17.60;1.00;;;;;;5106675;27;20857;-76
2023/10/14 01:37:01;;;;;;;7.00;5.00;;;17.60;1.00;;;;;;5108765;27;20447;-76
2023/10/14 01:39:30;;;;;;;8.57;5.73;;;17.80;1.00;;;;;;5100953;27;20451;-76
2023/10/14 01:41:57;;;;;;;6.70;5.53;;;17.90;1.00;;;;;;5106777;27;20537;-76
2023/10/14 01:44:26;;;;;;;8.30;6.10;;;17.90;1.00;;;;;;5110890;27;20485;-78
2023/10/14 01:46:55;;;;;;;8.60;4.90;;;18.00;1.00;;;;;;5102501;27;20491;-77
2023/10/14 01:49:26;;;;;;;6.77;5.10;;;18.00;1.00;;;;;;5109712;27;20461;-76
2023/10/14 01:51:56;;;;;;;6.40;4.70;;;18.10;1.00;;;;;;5111614;27;20942;-76
2023/10/14 01:54:23;;;;;;;8.60;5.10;;;18.00;1.00;;;;;;5107906;27;20471;-76
2023/10/14 01:56:54;;;;;;;7.73;5.70;;;18.00;1.00;;;;;;5108534;27;20470;-72
2023/10/14 01:59:23;;;;;;;9.03;5.93;;;18.00;1.00;;;;;;5109274;27;22641;-77
2023/10/14 02:01:50;;;;;;;7.20;4.50;;;18.00;1.00;;;;;;5114385;27;20463;-77
2023/10/14 02:04:16;;;;;;;6.10;5.20;;;17.90;1.00;;;;;;5108584;27;20963;-77
2023/10/14 02:06:47;;;;;;;8.97;5.90;;;17.80;1.00;;;;;;5103985;27;20478;-76
2023/10/14 02:09:17;;;;;;;8.93;5.80;;;17.80;1.00;;;;;;5108707;27;20962;-78
2023/10/14 02:11:47;;;;;;;5.77;4.67;;;17.80;1.00;;;;;;5109825;27;20854;-77
2023/10/14 02:14:22;;;;;;;8.03;5.57;;;17.80;1.00;;;;;;5110917;27;20497;-77
2023/10/14 02:16:49;;;;;;;5.83;5.33;;;17.70;1.00;;;;;;5112727;27;20459;-77
2023/10/14 02:19:21;;;;;;;9.10;5.43;;;17.70;1.00;;;;;;5108420;27;20876;-77
2023/10/14 02:21:57;;;;;;;7.90;5.87;;;17.70;1.00;;;;;;5109422;27;20455;-77
2023/10/14 02:24:27;;;;;;;6.67;5.10;;;17.70;1.00;;;;;;5108915;27;20470;-76
2023/10/14 02:26:56;;;;;;;6.33;5.70;;;17.60;1.00;;;;;;5111501;27;20481;-77
2023/10/14 02:29:25;;;;;;;10.03;5.80;;;17.60;1.00;;;;;;5111167;27;20793;-76
2023/10/14 02:31:52;;;;;;;6.40;5.60;;;17.60;1.00;;;;;;5111790;27;20467;-77
2023/10/14 02:34:19;;;;;;;8.00;5.40;;;17.70;1.00;;;;;;5112689;27;20557;-75
2023/10/14 02:36:52;;;;;;;7.17;4.93;;;17.60;1.00;;;;;;5113552;27;20565;-75
2023/10/14 02:39:26;;;;;;;6.70;5.30;;;17.60;1.00;;;;;;5111553;27;20490;-75
2023/10/14 02:41:59;;;;;;;8.13;5.73;;;17.60;1.00;;;;;;5114508;27;20485;-76
2023/10/14 02:44:30;;;;;;;9.03;5.83;;;17.60;1.00;;;;;;5111427;27;20486;-77
2023/10/14 02:47:03;;;;;;;10.33;5.97;;;17.60;1.00;;;;;;5111378;27;20861;-77
2023/10/14 02:49:35;;;;;;;6.13;5.57;;;17.80;1.00;;;;;;5103635;27;21355;-77
2023/10/14 02:52:08;;;;;;;9.00;6.17;;;17.90;1.00;;;;;;5109073;27;20467;-72
2023/10/14 02:54:36;;;;;;;8.17;5.37;;;18.00;1.00;;;;;;5109900;27;20473;-76
2023/10/14 02:57:12;;;;;;;7.43;5.87;;;18.10;1.00;;;;;;5111547;27;20456;-77
2023/10/14 02:59:46;;;;;;;5.60;4.90;;;18.30;1.00;;;;;;5107181;27;20995;-71
2023/10/14 03:02:24;;;;;;;6.90;5.57;;;18.50;1.00;;;;;;5103707;27;20463;-77
2023/10/14 03:05:08;;;;;;;8.67;5.60;;;18.70;1.00;;;;;;5105601;27;20468;-74
2023/10/14 03:07:45;;;;;;;6.77;6.17;;;18.90;1.00;;;;;;5101800;27;20570;-72
2023/10/14 03:10:19;;;;;;;6.40;5.07;;;19.10;1.00;;;;;;5106891;27;20922;-73
2023/10/14 03:12:49;;;;;;;8.53;5.50;;;19.10;1.00;;;;;;5104788;27;20873;-74
2023/10/14 03:15:21;;;;;;;14.43;5.37;;;19.30;1.00;;;;;;5105566;27;20482;-76
2023/10/14 03:17:55;;;;;;;9.07;5.23;;;19.30;1.00;;;;;;5105385;27;20450;-75
2023/10/14 03:23:10;;;;;;;6.73;4.90;;;19.50;1.00;;;;;;5104875;27;20479;-74
2023/10/14 03:25:38;;;;;;;7.57;5.67;;;19.60;1.00;;;;;;5106201;27;20465;-74
2023/10/14 03:28:12;;;;;;;6.73;6.03;;;19.70;1.00;;;;;;5103719;27;20828;-73
2023/10/14 03:30:45;;;;;;;8.90;5.60;;;19.80;1.00;;;;;;5107723;27;20465;-74
2023/10/14 03:33:13;;;;;;;11.20;6.40;;;19.90;1.00;;;;;;5105250;27;20874;-75
2023/10/14 03:35:43;;;;;;;6.70;5.60;;;20.00;1.00;;;;;;5104512;27;20467;-74
2023/10/14 03:38:25;;;;;;;7.47;5.53;;;20.00;1.00;;;;;;5111670;27;22050;-75
2023/10/14 03:41:02;;;;;;;6.70;6.00;;;20.10;1.00;;;;;;5108086;27;20456;-74
2023/10/14 03:43:30;;;;;;;6.47;5.87;;;20.10;1.00;;;;;;5103948;27;20441;-74
2023/10/14 03:46:03;;;;;;;8.20;5.33;;;20.10;1.00;;;;;;5107680;27;20476;-74
2023/10/14 03:48:35;;;;;;;6.80;6.00;;;20.10;1.00;;;;;;5100519;27;20961;-74
2023/10/14 03:51:03;;;;;;;6.33;5.73;;;20.10;1.00;;;;;;5107083;27;20471;-74
2023/10/14 03:53:32;;;;;;;8.77;6.70;;;20.10;1.00;;;;;;5103555;27;20467;-73
2023/10/14 03:56:00;;;;;;;9.30;5.60;;;20.10;1.00;;;;;;5108960;27;20468;-76
2023/10/14 03:58:29;;;;;;;8.60;5.43;;;20.10;1.00;;;;;;5107562;27;20508;-75
2023/10/14 04:01:02;;;;;;;7.73;6.67;;;20.00;1.00;;;;;;5108984;27;20511;-75
2023/10/14 04:03:40;;;;;;;6.23;5.63;;;20.00;1.00;;;;;;5104481;27;20452;-74
2023/10/14 04:06:14;;;;;;;10.73;5.90;;;20.00;1.00;;;;;;5099591;27;20511;-74
2023/10/14 04:08:47;;;;;;;7.67;6.50;;;20.00;1.00;;;;;;5104548;27;20452;-75
2023/10/14 04:11:16;;;;;;;6.80;5.13;;;20.00;1.00;;;;;;5106330;27;20979;-74
2023/10/14 04:13:51;;;;;;;7.50;5.90;;;20.00;1.00;;;;;;5105767;27;20455;-74
2023/10/14 04:16:28;;;;;;;6.87;6.00;;;19.90;1.00;;;;;;5103841;27;20498;-69
2023/10/14 04:19:02;;;;;;;7.03;6.30;;;19.80;1.00;;;;;;5102467;27;20464;-71
2023/10/14 04:21:36;;;;;;;11.57;6.90;;;19.80;1.00;;;;;;5105766;27;20579;-70
2023/10/14 04:24:20;;;;;;;7.90;6.43;;;19.80;1.00;;;;;;5102879;27;20984;-70
2023/10/14 04:26:48;;;;;;;8.40;5.43;;;19.80;1.00;;;;;;5100412;27;20461;-70
2023/10/14 04:29:22;;;;;;;7.23;5.87;;;19.60;1.00;;;;;;5101934;27;20446;-70
2023/10/14 04:31:56;;;;;;;7.10;5.80;;;19.40;1.00;;;;;;5104454;27;20476;-69
2023/10/14 04:34:23;;;;;;;9.77;6.03;;;19.30;1.00;;;;;;5105651;27;20955;-69
2023/10/14 04:36:56;;;;;;;8.63;5.57;;;19.20;1.00;;;;;;5103480;27;20925;-70
2023/10/14 04:39:31;;;;;;;7.80;5.63;;;19.20;1.00;;;;;;5104527;27;20492;-71
2023/10/14 04:42:22;;;;;;;8.30;6.10;;;19.20;1.00;;;;;;5104989;27;20583;-70
2023/10/14 04:44:55;;;;;;;8.63;5.93;;;19.30;1.00;;;;;;5106417;27;20449;-72
2023/10/14 04:47:35;;;;;;;9.30;5.87;;;19.50;1.00;;;;;;5105037;27;20567;-68
2023/10/14 04:50:10;;;;;;;8.17;6.00;;;19.60;1.00;;;;;;5111116;27;20916;-72
2023/10/14 04:52:38;;;;;;;8.03;5.97;;;19.60;1.00;;;;;;5104526;27;20449;-69
2023/10/14 04:55:21;;;;;;;9.83;6.30;;;19.60;1.00;;;;;;5104094;27;20454;-69
2023/10/14 04:58:05;;;;;;;6.50;5.83;;;19.60;1.00;;;;;;5104391;27;20469;-71
2023/10/14 05:00:38;;;;;;;5.83;5.17;;;19.70;1.00;;;;;;5110299;27;21013;-69
2023/10/14 05:03:09;;;;;;;8.70;5.27;;;19.70;1.00;;;;;;5101984;27;20487;-70
2023/10/14 05:05:38;;;;;;;13.20;7.67;;;19.50;1.00;;;;;;5102953;27;20978;-70
2023/10/14 05:08:07;;;;;;;8.60;7.10;;;18.80;1.00;;;;;;5100436;27;20489;-71
2023/10/14 05:10:41;;;;;;;12.07;8.30;;;18.10;1.00;;;;;;5104652;27;20462;-71
2023/10/14 05:13:09;;;;;;;18.20;9.30;;;17.50;1.00;;;;;;5104433;27;20461;-71
2023/10/14 05:15:40;;;;;;;12.23;8.83;;;17.10;1.00;;;;;;5102981;27;20461;-69
2023/10/14 05:18:14;;;;;;;9.33;8.30;;;16.90;1.00;;;;;;5102797;27;21230;-71
2023/10/14 05:20:55;;;;;;;12.27;8.57;;;16.80;1.00;;;;;;5104503;27;20573;-71
2023/10/14 05:23:24;;;;;;;11.60;8.80;;;16.80;1.00;;;;;;5105442;27;20513;-70
2023/10/14 05:25:56;;;;;;;13.80;9.47;;;16.80;1.00;;;;;;5100336;27;20864;-71
2023/10/14 05:28:29;;;;;;;11.80;9.03;;;16.80;1.00;;;;;;5107255;27;21019;-67
2023/10/14 05:30:57;;;;;;;9.93;8.90;;;16.80;1.00;;;;;;5107803;27;20545;-71
2023/10/14 05:33:27;;;;;;;9.17;8.00;;;16.80;1.00;;;;;;5111548;27;20499;-70
2023/10/14 05:35:57;;;;;;;8.73;7.80;;;16.70;1.00;;;;;;5108193;27;20470;-69
2023/10/14 05:38:24;;;;;;;10.10;7.13;;;16.70;1.00;;;;;;5111160;27;20473;-72
2023/10/14 05:40:55;;;;;;;8.17;6.63;;;16.70;1.00;;;;;;5112241;27;20519;-70
2023/10/14 05:43:23;;;;;;;7.20;6.50;;;16.60;1.00;;;;;;5109221;27;20453;-70
2023/10/14 05:45:52;;;;;;;7.10;5.90;;;16.50;1.00;;;;;;5106096;27;20446;-69
2023/10/14 05:48:25;;;;;;;7.03;4.77;;;16.50;1.00;;;;;;5110792;27;20488;-71
2023/10/14 05:50:56;;;;;;;7.00;3.60;;;16.40;1.00;;;;;;5111270;27;21050;-70
2023/10/14 05:53:23;;;;;;;4.60;2.70;;;16.30;1.00;;;;;;5111060;27;20826;-70
2023/10/14 05:55:58;;;;;;;2.83;2.53;;;16.10;1.00;;;;;;5112015;27;20462;-69
2023/10/14 05:58:27;;;;;;;2.77;2.20;;;15.90;1.00;;;;;;5109712;27;20988;-71
2023/10/14 06:00:55;;;;;;;1.60;1.20;;;15.60;1.00;;;;;;5109543;27;20452;-70
2023/10/14 06:03:22;;;;;;;1.77;1.07;;;15.30;1.00;;;;;;5102688;27;20521;-71
2023/10/14 06:05:50;;;;;;;1.63;1.53;;;15.00;1.00;;;;;;5104106;27;20465;-69
2023/10/14 06:08:19;;;;;;;1.77;1.20;;;14.90;1.00;;;;;;5104916;27;20488;-73
2023/10/14 06:10:46;;;;;;;2.43;1.00;;;14.60;1.00;;;;;;5107729;27;20883;-70
2023/10/14 06:13:15;;;;;;;1.00;0.90;;;14.50;1.00;;;;;;5105633;27;20966;-70
2023/10/14 06:15:44;;;;;;;1.90;0.93;;;14.30;1.00;;;;;;5111034;27;20469;-72
2023/10/14 06:18:13;;;;;;;2.47;1.00;;;14.20;1.00;;;;;;5107229;27;21271;-71
2023/10/14 06:20:41;;;;;;;3.50;0.97;;;14.00;1.00;;;;;;5107455;27;20541;-70
2023/10/14 06:23:08;;;;;;;1.20;0.90;;;14.00;1.00;;;;;;5110438;27;20576;-69
2023/10/14 06:25:38;;;;;;;2.50;0.80;;;13.90;1.00;;;;;;5105904;27;20464;-69
2023/10/14 06:28:07;;;;;;;1.73;0.80;;;13.80;1.00;;;;;;5101141;27;22587;-70
2023/10/14 06:30:34;;;;;;;2.43;0.80;;;13.80;1.00;;;;;;5103798;27;20902;-73
2023/10/14 06:33:04;;;;;;;4.90;0.90;;;13.70;1.00;;;;;;5106735;27;21001;-68
2023/10/14 06:35:32;;;;;;;1.37;0.80;;;13.70;1.00;;;;;;5105739;27;20458;-76
2023/10/14 06:37:59;;;;;;;1.03;0.90;;;13.60;1.00;;;;;;5111956;27;20551;-77
2023/10/14 06:40:32;;;;;;;1.20;1.00;;;13.60;1.00;;;;;;5111650;27;20543;-76
2023/10/14 06:43:06;;;;;;;2.57;1.27;;;13.50;1.00;;;;;;5107449;27;21329;-76
2023/10/14 06:45:34;;;;;;;1.43;0.80;;;13.50;1.00;;;;;;5109655;27;20470;-74
2023/10/14 06:48:03;;;;;;;2.40;1.00;;;13.60;1.00;;;;;;5104713;27;20468;-75
2023/10/14 06:50:31;;;;;;;1.70;0.87;;;13.50;1.00;;;;;;5109047;27;20450;-76
2023/10/14 06:53:00;;;;;;;2.63;1.30;;;13.50;1.00;;;;;;5111766;27;20454;-73
2023/10/14 06:55:27;;;;;;;1.83;1.10;;;13.50;1.00;;;;;;5113382;27;20480;-75
2023/10/14 06:57:55;;;;;;;1.70;0.80;;;13.50;1.00;;;;;;5108432;27;20515;-76
2023/10/14 07:00:29;;;;;;;1.13;1.03;;;13.50;1.00;;;;;;5104081;27;20458;-76
2023/10/14 07:03:00;;;;;;;1.77;1.43;;;13.50;1.00;;;;;;5108044;27;20580;-76
2023/10/14 07:05:29;;;;;;;4.00;1.63;;;13.50;1.00;;;;;;5112867;27;21442;-74
2023/10/14 07:07:57;;;;;;;2.00;1.40;;;13.50;1.00;;;;;;5112488;27;20471;-75
2023/10/14 07:10:32;;;;;;;3.53;1.23;;;13.50;1.00;;;;;;5104656;27;21006;-76
2023/10/14 07:13:00;;;;;;;2.70;1.40;;;13.60;1.00;;;;;;5107253;27;21006;-76
2023/10/14 07:15:31;;;;;;;5.30;1.20;;;13.60;1.00;;;;;;5110776;27;20432;-75
2023/10/14 07:17:58;;;;;;;2.23;1.60;;;13.60;1.00;;;;;;5107143;27;20482;-75
2023/10/14 07:20:29;;;;;;;2.90;1.13;;;13.60;1.00;;;;;;5110769;27;20459;-74
2023/10/14 07:22:56;;;;;;;1.63;1.53;;;13.70;1.00;;;;;;5111410;27;20463;-75
2023/10/14 07:25:24;;;;;;;1.80;1.27;;;13.70;1.00;;;;;;5112152;27;21846;-76
2023/10/14 07:27:51;;;;;;;3.40;1.60;;;13.70;1.00;;;;;;5108117;27;20474;-76
2023/10/14 07:30:19;;;;;;;3.50;1.70;;;13.70;1.00;;;;;;5109470;27;20470;-73
2023/10/14 07:32:49;;;;;;;2.30;1.63;;;13.70;1.00;;;;;;5105921;27;20472;-73
2023/10/14 07:35:19;;;;;;;1.97;1.50;;;13.80;1.00;;;;;;5108282;27;20468;-74
2023/10/14 07:37:48;;;;;;;2.13;1.17;;;13.90;1.00;;;;;;5109172;27;21351;-75
2023/10/14 07:40:23;;;;;;;2.97;1.70;;;14.00;1.00;;;;;;5108475;27;20516;-74
2023/10/14 07:42:54;;;;;;;1.70;1.20;;;14.10;1.00;;;;;;5108391;27;20541;-75
2023/10/14 07:45:27;;;;;;;2.20;2.00;;;14.00;1.00;;;;;;5108397;27;20469;-71
2023/10/14 07:47:57;;;;;;;3.97;1.73;;;14.00;1.00;;;;;;5106839;27;20466;-71
2023/10/14 07:50:24;;;;;;;4.23;1.70;;;14.00;1.00;;;;;;5106810;27;20603;-70
2023/10/14 07:52:54;;;;;;;3.73;1.20;;;14.00;1.00;;;;;;5103088;27;21046;-68
2023/10/14 07:55:25;;;;;;;4.13;1.90;;;14.00;1.00;;;;;;5099384;27;20526;-73
2023/10/14 07:57:52;;;;;;;4.43;1.60;;;14.00;1.00;;;;;;5104191;27;20573;-72
2023/10/14 08:00:19;;;;;;;4.03;1.97;;;14.00;1.00;;;;;;5106086;27;20540;-70
2023/10/14 08:02:51;;;;;;;2.30;1.80;;;14.00;1.00;;;;;;5107367;27;20487;-70
2023/10/14 08:05:20;;;;;;;4.90;2.30;;;13.90;1.00;;;;;;5107756;27;20460;-69
2023/10/14 08:07:47;;;;;;;3.40;2.00;;;14.00;1.00;;;;;;5107419;27;20467;-72
2023/10/14 08:10:21;;;;;;;7.23;2.40;;;14.20;1.00;;;;;;5100921;27;20982;-70
2023/10/14 08:12:50;;;;;;;5.53;3.50;;;14.50;1.00;;;;;;5104259;27;20960;-69
2023/10/14 08:15:18;;;;;;;2.50;1.63;;;14.70;1.00;;;;;;5104942;27;20453;-70
2023/10/14 08:17:46;;;;;;;4.83;2.63;;;14.90;1.00;;;;;;5105944;27;20476;-68
2023/10/14 08:20:14;;;;;;;2.67;1.77;;;15.20;1.00;;;;;;5107880;27;20579;-70
2023/10/14 08:22:45;;;;;;;4.70;2.47;;;15.50;1.00;;;;;;5108916;27;20458;-70
2023/10/14 08:25:12;;;;;;;6.23;2.63;;;15.70;1.00;;;;;;5107283;27;20971;-70
2023/10/14 08:27:39;;;;;;;5.60;1.40;;;16.10;1.00;;;;;;5110393;27;20512;-70
2023/10/14 08:30:11;;;;;;;4.80;1.67;;;16.30;1.00;;;;;;5108803;27;20466;-69
2023/10/14 08:32:40;;;;;;;6.53;1.90;;;16.40;1.00;;;;;;5109455;27;20458;-70
2023/10/14 08:35:14;;;;;;;9.27;1.70;;;17.00;1.00;;;;;;5107292;27;20484;-68
2023/10/14 08:37:47;;;;;;;3.90;2.03;;;17.50;1.00;;;;;;5102350;27;20511;-69
2023/10/14 08:40:17;;;;;;;5.17;1.87;;;18.20;1.00;;;;;;5106318;27;20550;-69
2023/10/14 08:43:02;;;;;;;4.70;1.93;;;19.20;1.00;;;;;;5105714;27;20443;-71
2023/10/14 08:45:29;;;;;;;3.90;1.80;;;20.20;1.00;;;;;;5107628;27;20476;-68
2023/10/14 08:47:59;;;;;;;6.67;2.17;;;20.00;1.00;;;;;;5109068;27;20467;-69
2023/10/14 08:50:29;;;;;;;4.30;2.67;;;19.50;1.00;;;;;;5106003;27;20569;-71
2023/10/14 08:53:00;;;;;;;7.97;2.10;;;19.30;1.00;;;;;;5110424;27;20489;-69
2023/10/14 08:55:29;;;;;;;5.53;2.07;;;18.90;1.00;;;;;;5106366;27;20466;-72
2023/10/14 08:58:01;;;;;;;3.43;2.40;;;18.50;1.00;;;;;;5105984;27;20601;-74
2023/10/14 09:00:29;;;;;;;3.90;2.07;;;17.90;1.00;;;;;;5110654;27;21040;-74
2023/10/14 09:02:58;;;;;;;3.67;1.77;;;17.20;1.00;;;;;;5110265;27;20674;-76
2023/10/14 09:05:26;;;;;;;7.33;2.00;;;17.00;1.00;;;;;;5109342;27;20463;-72
2023/10/14 09:07:58;;;;;;;4.50;2.57;;;17.50;1.00;;;;;;5110281;27;20606;-73
2023/10/14 09:10:25;;;;;;;5.73;2.43;;;17.90;1.00;;;;;;5114928;27;20559;-73
2023/10/14 09:12:57;;;;;;;6.53;2.10;;;17.80;1.00;;;;;;5108015;27;20507;-71
2023/10/14 09:15:25;;;;;;;3.57;1.83;;;17.40;1.00;;;;;;5115236;27;20943;-75
2023/10/14 09:17:55;;;;;;;7.00;2.43;;;17.00;1.00;;;;;;5113773;27;20890;-74
2023/10/14 09:20:30;;;;;;;10.00;2.33;;;16.70;1.00;;;;;;5111725;27;20466;-74
2023/10/14 09:23:29;;;;;;;6.33;1.53;;;16.60;1.00;;;;;;5111039;27;20509;-73
2023/10/14 09:25:58;;;;;;;4.07;2.13;;;16.80;1.00;;;;;;5110188;27;20478;-74
2023/10/14 09:28:26;;;;;;;6.33;2.53;;;16.70;1.00;;;;;;5113347;27;21097;-73
2023/10/14 09:30:55;;;;;;;7.90;2.20;;;16.70;1.00;;;;;;5109089;27;21065;-73
2023/10/14 09:33:27;;;;;;;6.13;2.10;;;16.50;1.00;;;;;;5111443;27;20533;-73
2023/10/14 09:35:58;;;;;;;6.43;2.00;;;16.50;1.00;;;;;;5114373;27;20496;-74
2023/10/14 09:38:30;;;;;;;5.57;1.53;;;16.50;1.00;;;;;;5112374;27;20434;-76
2023/10/14 09:41:02;;;;;;;4.93;2.13;;;16.50;1.00;;;;;;5112350;27;20487;-75
2023/10/14 09:43:30;;;;;;;4.57;2.07;;;16.50;1.00;;;;;;5112726;27;20489;-74
2023/10/14 09:45:59;;;;;;;7.70;2.10;;;16.70;1.00;;;;;;5114673;27;20460;-73
2023/10/14 09:48:27;;;;;;;3.70;1.90;;;16.70;1.00;;;;;;5108628;27;20478;-75
2023/10/14 09:50:55;;;;;;;5.03;2.17;;;16.90;1.00;;;;;;5107365;27;20999;-75
2023/10/14 09:53:26;;;;;;;4.27;1.70;;;16.90;1.00;;;;;;5112644;27;20569;-75
2023/10/14 09:55:55;;;;;;;6.70;2.23;;;16.90;1.00;;;;;;5112617;27;20532;-73
2023/10/14 09:58:24;;;;;;;3.33;1.30;;;16.90;1.00;;;;;;5105425;27;20554;-74
2023/10/14 10:00:51;;;;;;;8.10;2.10;;;16.70;1.00;;;;;;5110163;27;20529;-74
2023/10/14 10:03:21;;;;;;;8.30;2.40;;;16.50;1.00;;;;;;5111566;27;20449;-74
2023/10/14 10:06:00;;;;;;;4.37;2.13;;;16.50;1.00;;;;;;5115699;27;20454;-70
2023/10/14 10:09:02;;;;;;;7.47;2.40;;;16.70;1.00;;;;;;5109551;27;20465;-68
2023/10/14 10:11:33;;;;;;;5.20;1.67;;;17.10;1.00;;;;;;5107373;27;20445;-70
2023/10/14 10:14:01;;;;;;;6.27;1.93;;;17.20;1.00;;;;;;5103580;27;20451;-68
2023/10/14 10:16:32;;;;;;;4.13;1.70;;;17.40;1.00;;;;;;5109809;27;20445;-70
2023/10/14 10:19:01;;;;;;;4.37;1.80;;;17.30;1.00;;;;;;5109430;27;20458;-71
2023/10/14 10:21:30;;;;;;;4.73;1.60;;;17.30;1.00;;;;;;5110843;27;20523;-70
2023/10/14 10:24:16;;;;;;;7.10;3.03;;;17.20;1.00;;;;;;5113154;27;20812;-69
2023/10/14 10:29:44;;;;;;;3.80;1.73;;;17.20;1.00;;;;;;5100541;27;20546;-68
2023/10/14 10:32:17;;;;;;;8.77;2.30;;;17.50;1.00;;;;;;5077797;27;20450;-69
2023/10/14 10:35:16;;;;;;;5.90;1.90;;;17.60;1.00;;;;;;5085656;27;20529;-70
2023/10/14 10:37:47;;;;;;;3.43;1.57;;;18.20;1.00;;;;;;5097675;27;20455;-69
2023/10/14 10:40:18;;;;;;;4.23;2.17;;;18.70;1.00;;;;;;5083217;27;20479;-70
2023/10/14 10:42:47;;;;;;;4.00;1.67;;;19.10;1.00;;;;;;5090132;27;20461;-71
2023/10/14 10:45:21;;;;;;;3.60;1.97;;;19.50;1.00;;;;;;5100616;27;20945;-72
2023/10/14 10:47:55;;;;;;;5.60;2.83;;;19.80;1.00;;;;;;5105233;27;20524;-71
2023/10/14 10:50:26;;;;;;;4.50;1.97;;;19.50;1.00;;;;;;5101222;27;20588;-72
2023/10/14 10:52:54;;;;;;;7.70;2.20;;;19.40;1.00;;;;;;5100447;27;20971;-71
2023/10/14 10:55:24;;;;;;;6.73;2.43;;;19.10;1.00;;;;;;5081008;27;20468;-72
2023/10/14 10:58:00;;;;;;;4.73;1.80;;;19.10;1.00;;;;;;5101585;27;20847;-71
2023/10/14 11:00:31;;;;;;;4.90;2.20;;;19.10;1.00;;;;;;5087777;27;20467;-74
2023/10/14 11:02:58;;;;;;;6.17;1.80;;;18.90;1.00;;;;;;5100474;27;20474;-71
2023/10/14 11:05:25;;;;;;;6.53;1.90;;;18.90;1.00;;;;;;5083439;27;20470;-72
2023/10/14 11:07:53;;;;;;;2.87;1.73;;;18.50;1.00;;;;;;5090990;27;20498;-74
2023/10/14 11:10:23;;;;;;;6.00;2.57;;;18.50;1.00;;;;;;5102522;27;20478;-71
2023/10/14 11:12:50;;;;;;;3.53;1.90;;;18.90;1.00;;;;;;5097022;27;20814;-71
2023/10/14 11:15:21;;;;;;;7.20;2.20;;;18.90;1.00;;;;;;5103109;27;20493;-72
2023/10/14 11:17:53;;;;;;;7.30;3.70;;;19.20;1.00;;;;;;5102935;27;21117;-72
2023/10/14 11:20:21;;;;;;;8.40;3.20;;;20.00;1.00;;;;;;5103369;27;20548;-72
2023/10/14 11:22:49;;;;;;;6.83;2.50;;;19.70;1.00;;;;;;5090001;27;20993;-73
2023/10/14 11:25:19;;;;;;;6.97;3.27;;;19.10;1.00;;;;;;5085447;27;20479;-73
2023/10/14 11:27:46;;;;;;;6.13;1.90;;;18.60;1.00;;;;;;5098915;27;20530;-73
2023/10/14 11:30:15;;;;;;;7.80;2.10;;;18.10;1.00;;;;;;5081333;27;20541;-72
2023/10/14 11:32:47;;;;;;;5.77;2.57;;;17.60;1.00;;;;;;5076185;27;20552;-75
2023/10/14 11:35:17;;;;;;;7.77;2.53;;;17.20;1.00;;;;;;5085702;27;20511;-71
2023/10/14 11:37:49;;;;;;;6.87;2.70;;;17.00;1.00;;;;;;5086076;27;20490;-71
2023/10/14 11:40:17;;;;;;;6.43;2.13;;;17.00;1.00;;;;;;5073267;27;20479;-73
2023/10/14 11:42:44;;;;;;;4.47;1.87;;;17.50;1.00;;;;;;5067264;27;20546;-72
2023/10/14 11:45:11;;;;;;;7.90;2.60;;;18.20;1.00;;;;;;5070156;27;20455;-72
2023/10/14 11:47:44;;;;;;;6.17;1.87;;;18.90;1.00;;;;;;5065392;28;20489;-74
2023/10/14 11:50:14;;;;;;;6.77;1.83;;;19.40;1.00;;;;;;5042066;28;20940;-73
2023/10/14 11:52:43;;;;;;;5.53;2.10;;;20.00;1.00;;;;;;5049116;28;20863;-74
2023/10/14 11:55:14;;;;;;;3.83;1.70;;;20.60;1.00;;;;;;5063894;27;20462;-71
2023/10/14 11:57:45;;;;;;;4.23;1.67;;;20.60;1.00;;;;;;5049024;28;20453;-73
2023/10/14 12:00:17;;;;;;;4.53;1.67;;;20.80;1.00;;;;;;5047988;28;20615;-72
2023/10/14 12:02:45;;;;;;;6.37;2.27;;;20.80;1.00;;;;;;5046250;28;20469;-71
2023/10/14 12:05:13;;;;;;;4.03;2.10;;;20.60;1.00;;;;;;5049553;28;20480;-71
2023/10/14 12:07:40;;;;;;;5.33;1.97;;;20.10;1.00;;;;;;5054359;28;20460;-72
2023/10/14 12:10:11;;;;;;;4.97;2.30;;;20.20;1.00;;;;;;5050717;28;21081;-71
2023/10/14 12:12:39;;;;;;;6.00;2.27;;;20.20;1.00;;;;;;5052775;28;21044;-71
2023/10/14 12:15:07;;;;;;;5.07;1.90;;;19.30;1.00;;;;;;5045554;28;21035;-70
2023/10/14 12:17:35;;;;;;;5.50;1.60;;;18.60;1.00;;;;;;5048318;28;20515;-72
2023/10/14 12:20:10;;;;;;;5.50;1.97;;;17.90;1.00;;;;;;5055581;28;20506;-71
2023/10/14 12:22:37;;;;;;;4.53;2.00;;;17.70;1.00;;;;;;5066187;27;20452;-73
2023/10/14 12:25:04;;;;;;;7.63;2.70;;;17.80;1.00;;;;;;5058498;28;20526;-70
2023/10/14 12:27:34;;;;;;;4.93;1.80;;;18.00;1.00;;;;;;5069059;27;20478;-72
2023/10/14 12:30:01;;;;;;;6.47;2.43;;;17.90;1.00;;;;;;5081549;28;20961;-73
2023/10/14 12:32:30;;;;;;;6.40;2.10;;;18.10;1.00;;;;;;5090061;27;20501;-72
2023/10/14 12:34:59;;;;;;;8.27;2.20;;;18.20;1.00;;;;;;5088842;27;20500;-72
2023/10/14 12:37:28;;;;;;;5.60;2.70;;;18.40;1.00;;;;;;5082223;27;20456;-72
2023/10/14 12:40:04;;;;;;;5.50;1.90;;;18.60;1.00;;;;;;5072963;27;20534;-72
2023/10/14 12:42:46;;;;;;;7.00;3.03;;;18.90;1.00;;;;;;5068138;28;20451;-72
2023/10/14 12:45:14;;;;;;;5.97;3.50;;;19.40;1.00;;;;;;5083863;28;20981;-71
2023/10/14 12:47:46;;;;;;;5.13;2.20;;;20.20;1.00;;;;;;5086123;27;20859;-72
2023/10/14 12:50:14;;;;;;;7.53;2.30;;;20.40;1.00;;;;;;5070545;27;20470;-72
2023/10/14 12:52:42;;;;;;;7.90;2.27;;;20.10;1.00;;;;;;5086996;27;20957;-71
2023/10/14 12:55:17;;;;;;;5.33;2.37;;;19.50;1.00;;;;;;5084557;28;20480;-71
2023/10/14 12:57:46;;;;;;;6.40;2.10;;;18.90;1.00;;;;;;5083280;28;20599;-70
2023/10/14 13:00:19;;;;;;;7.87;2.07;;;18.70;1.00;;;;;;5087394;28;20480;-70
2023/10/14 13:02:46;;;;;;;4.13;2.13;;;19.10;1.00;;;;;;5085787;28;20452;-70
2023/10/14 13:05:18;;;;;;;4.10;2.10;;;19.20;1.00;;;;;;5085690;27;20484;-71
2023/10/14 13:07:47;;;;;;;6.53;2.53;;;19.30;1.00;;;;;;5086995;28;21066;-72
2023/10/14 13:10:18;;;;;;;4.90;2.47;;;19.30;1.00;;;;;;5084508;27;20591;-72
2023/10/14 13:12:50;;;;;;;6.90;2.00;;;19.60;1.00;;;;;;5079123;28;20929;-73
2023/10/14 13:15:25;;;;;;;4.43;2.03;;;20.20;1.00;;;;;;5085655;28;20450;-72
2023/10/14 13:17:56;;;;;;;5.50;1.87;;;21.40;1.00;;;;;;5086945;27;20464;-72
2023/10/14 13:20:29;;;;;;;5.40;1.97;;;21.30;1.00;;;;;;5082034;27;20485;-72